Time;durP1;ratioP1;P1;durP2;ratioP2;P2;SDS_P1;SDS_P2;PMS_P1;PMS_P2;Temp;Humidity;BMP_temperature;BMP_pressure;BME280_temperature;BME280_humidity;BME280_pressure;Samples;Min_cycle;Max_cycle;Signal;HPM_P1;HPM_P2
2023/10/11 00:01:28;;;;;;;29.60;11.32;;;16.90;99.90;;;;;;5053886;28;20091;-72
2023/10/11 00:03:54;;;;;;;29.50;11.43;;;16.90;99.90;;;;;;5034973;28;20052;-72
2023/10/11 00:06:20;;;;;;;31.58;11.88;;;16.80;99.90;;;;;;5035992;28;20143;-72
2023/10/11 00:08:45;;;;;;;28.90;12.00;;;16.90;99.90;;;;;;5035747;28;20446;-72
2023/10/11 00:11:18;;;;;;;28.70;12.23;;;16.90;99.90;;;;;;5053130;28;20076;-72
2023/10/11 00:13:44;;;;;;;31.00;11.23;;;16.80;99.90;;;;;;5053838;28;20045;-72
2023/10/11 00:16:10;;;;;;;32.22;12.23;;;16.90;99.90;;;;;;5053513;28;20129;-72
2023/10/11 00:18:38;;;;;;;33.03;11.68;;;16.90;99.90;;;;;;5035079;28;20124;-72
2023/10/11 00:23:56;;;;;;;36.83;13.27;;;17.10;99.90;;;;;;5005082;28;20057;-72
2023/10/11 00:26:22;;;;;;;38.85;10.48;;;17.10;99.90;;;;;;5052617;28;20048;-72
2023/10/11 00:28:48;;;;;;;28.27;11.35;;;17.10;99.90;;;;;;5035278;28;20091;-72
2023/10/11 00:31:19;;;;;;;34.95;12.50;;;17.10;99.90;;;;;;5035742;28;20396;-72
2023/10/11 00:33:45;;;;;;;33.05;11.52;;;17.10;99.90;;;;;;5052658;28;20041;-72
2023/10/11 00:36:11;;;;;;;28.35;11.10;;;17.00;99.90;;;;;;5035027;28;20056;-72
2023/10/11 00:38:43;;;;;;;26.05;11.85;;;17.00;99.90;;;;;;5053173;28;20385;-72
2023/10/11 00:41:17;;;;;;;34.85;12.55;;;17.00;99.90;;;;;;5034528;28;20072;-72
2023/10/11 00:43:55;;;;;;;36.47;11.65;;;16.80;99.90;;;;;;5052952;28;20048;-72
2023/10/11 00:46:26;;;;;;;27.33;11.35;;;16.80;99.90;;;;;;5034935;28;20056;-72
2023/10/11 00:48:55;;;;;;;25.10;10.55;;;16.80;99.90;;;;;;5034925;28;20511;-72
2023/10/11 00:51:36;;;;;;;30.73;10.98;;;16.80;99.90;;;;;;5053292;28;20052;-72
2023/10/11 00:54:04;;;;;;;26.80;10.80;;;16.80;99.90;;;;;;5052288;28;20053;-72
2023/10/11 00:56:33;;;;;;;24.45;9.82;;;16.80;99.90;;;;;;5035600;28;20052;-72
2023/10/11 00:59:01;;;;;;;25.58;11.02;;;16.90;99.90;;;;;;5034974;28;20362;-72
2023/10/11 01:01:26;;;;;;;27.88;9.68;;;16.90;99.90;;;;;;5034745;28;20374;-72
2023/10/11 01:03:53;;;;;;;28.77;10.57;;;16.90;99.90;;;;;;5052797;28;20044;-72
2023/10/11 01:06:19;;;;;;;25.20;9.50;;;16.90;99.90;;;;;;5035047;28;20052;-72
2023/10/11 01:08:48;;;;;;;24.20;8.85;;;16.80;99.90;;;;;;5034530;28;20044;-72
2023/10/11 01:11:14;;;;;;;30.35;8.80;;;16.90;99.90;;;;;;5035038;28;20052;-72
2023/10/11 01:13:42;;;;;;;26.00;9.27;;;16.80;99.90;;;;;;5034761;28;20217;-72
2023/10/11 01:16:09;;;;;;;26.42;9.18;;;16.90;99.90;;;;;;5033279;28;20555;-72
2023/10/11 01:18:36;;;;;;;27.60;9.98;;;16.80;99.90;;;;;;5034920;28;20045;-72
2023/10/11 01:21:03;;;;;;;25.58;8.80;;;16.80;99.90;;;;;;5034660;28;20104;-72
2023/10/11 01:23:29;;;;;;;26.77;8.80;;;16.90;99.90;;;;;;5051979;28;20057;-72
2023/10/11 01:25:55;;;;;;;24.55;9.02;;;16.80;99.90;;;;;;5034438;28;20071;-72
2023/10/11 01:28:22;;;;;;;29.42;9.60;;;16.80;99.90;;;;;;5034034;28;20136;-72
2023/10/11 01:30:47;;;;;;;23.80;9.45;;;16.90;99.90;;;;;;5035106;28;20049;-72
2023/10/11 01:33:16;;;;;;;27.98;9.50;;;16.90;99.90;;;;;;5034834;28;20550;-72
2023/10/11 01:35:42;;;;;;;18.35;8.25;;;16.90;99.90;;;;;;5033801;28;20068;-71
2023/10/11 01:38:08;;;;;;;25.25;9.82;;;16.90;99.90;;;;;;5033296;28;20076;-72
2023/10/11 01:40:34;;;;;;;30.15;9.43;;;16.80;99.90;;;;;;5052322;28;20444;-71
2023/10/11 01:43:02;;;;;;;31.25;9.80;;;16.80;99.90;;;;;;5033089;28;20484;-71
2023/10/11 01:45:28;;;;;;;19.95;7.32;;;16.80;99.90;;;;;;5052498;28;20098;-71
2023/10/11 01:47:57;;;;;;;26.55;9.10;;;16.70;99.90;;;;;;5051904;28;20057;-72
2023/10/11 01:50:26;;;;;;;24.20;8.15;;;16.90;99.90;;;;;;5052885;28;20107;-71
2023/10/11 01:52:52;;;;;;;26.52;9.05;;;17.00;99.90;;;;;;5055841;28;20630;-72
2023/10/11 01:55:18;;;;;;;24.23;8.70;;;16.90;99.90;;;;;;5038750;28;20131;-71
2023/10/11 01:57:48;;;;;;;24.55;8.85;;;16.80;99.90;;;;;;5037691;28;20499;-72
2023/10/11 02:00:29;;;;;;;20.27;8.13;;;16.80;99.90;;;;;;5056671;28;20036;-72
2023/10/11 02:02:55;;;;;;;24.50;9.13;;;16.80;99.90;;;;;;5037644;28;20400;-72
2023/10/11 02:05:25;;;;;;;28.60;8.57;;;16.70;99.90;;;;;;5036835;28;20048;-71
2023/10/11 02:07:51;;;;;;;23.13;8.25;;;16.70;99.90;;;;;;5037473;28;20052;-71
2023/10/11 02:10:27;;;;;;;24.95;9.38;;;16.70;99.90;;;;;;5056143;28;20044;-72
2023/10/11 02:12:56;;;;;;;26.80;9.32;;;16.70;99.90;;;;;;5038294;28;20503;-72
2023/10/11 02:15:27;;;;;;;25.40;8.82;;;16.70;99.90;;;;;;5038338;28;20075;-72
2023/10/11 02:17:57;;;;;;;18.50;8.60;;;16.80;99.90;;;;;;5037391;28;20373;-71
2023/10/11 02:20:23;;;;;;;24.45;8.90;;;16.80;99.90;;;;;;5038415;28;20053;-71
2023/10/11 02:22:55;;;;;;;19.20;7.93;;;16.70;99.90;;;;;;5037996;28;20051;-72
2023/10/11 02:25:25;;;;;;;21.52;8.15;;;16.80;99.90;;;;;;5055213;28;20471;-71
2023/10/11 02:27:54;;;;;;;24.95;8.77;;;16.80;99.90;;;;;;5037995;28;20059;-71
2023/10/11 02:30:24;;;;;;;25.27;8.77;;;16.80;99.90;;;;;;5055732;28;20041;-71
2023/10/11 02:32:58;;;;;;;19.92;7.93;;;16.70;99.90;;;;;;5054661;28;20056;-71
2023/10/11 02:35:26;;;;;;;27.75;8.38;;;16.80;99.90;;;;;;5038231;28;20048;-71
2023/10/11 02:37:55;;;;;;;18.58;7.72;;;16.80;99.90;;;;;;5055167;28;20616;-71
2023/10/11 02:40:24;;;;;;;20.40;7.25;;;16.80;99.90;;;;;;5037130;28;20492;-71
2023/10/11 02:42:55;;;;;;;25.35;8.00;;;16.80;99.90;;;;;;5055127;28;20041;-71
2023/10/11 02:45:22;;;;;;;24.48;8.63;;;16.80;99.90;;;;;;5055835;28;20056;-71
2023/10/11 02:47:59;;;;;;;24.25;8.05;;;16.80;99.90;;;;;;5036480;28;20060;-71
2023/10/11 02:50:36;;;;;;;22.38;8.75;;;16.80;99.90;;;;;;5037367;28;20102;-71
2023/10/11 02:53:05;;;;;;;23.90;8.60;;;16.80;99.90;;;;;;5036884;28;20116;-72
2023/10/11 02:55:30;;;;;;;20.98;7.88;;;16.80;99.90;;;;;;5055356;28;20053;-71
2023/10/11 02:58:21;;;;;;;23.17;8.50;;;16.80;99.90;;;;;;5037205;28;20048;-72
2023/10/11 03:00:47;;;;;;;22.40;7.97;;;16.80;99.90;;;;;;5035923;28;20128;-72
2023/10/11 03:03:16;;;;;;;21.17;7.32;;;16.80;99.90;;;;;;5037304;28;20086;-71
2023/10/11 03:05:41;;;;;;;24.65;7.97;;;16.90;99.90;;;;;;5036734;28;20514;-71
2023/10/11 03:08:21;;;;;;;19.15;6.82;;;16.90;99.90;;;;;;5053676;28;20049;-72
2023/10/11 03:10:56;;;;;;;22.35;8.02;;;16.90;99.90;;;;;;5054852;28;20041;-71
2023/10/11 03:13:24;;;;;;;19.43;7.37;;;16.90;99.90;;;;;;5055254;28;20040;-72
2023/10/11 03:15:57;;;;;;;21.05;7.95;;;16.90;99.90;;;;;;5053877;28;20032;-71
2023/10/11 03:18:26;;;;;;;25.52;9.07;;;17.00;99.90;;;;;;5037472;28;20075;-71
2023/10/11 03:21:07;;;;;;;27.83;7.93;;;16.90;99.90;;;;;;5036103;28;20353;-71
2023/10/11 03:23:36;;;;;;;21.63;7.50;;;16.90;99.90;;;;;;5037100;28;20095;-71
2023/10/11 03:29:17;;;;;;;21.40;7.50;;;16.80;99.90;;;;;;5014041;28;20052;-71
2023/10/11 03:31:43;;;;;;;22.25;8.40;;;16.80;99.90;;;;;;5037024;28;20103;-71
2023/10/11 03:34:14;;;;;;;26.52;7.15;;;16.70;99.90;;;;;;5035602;28;20116;-71
2023/10/11 03:36:52;;;;;;;23.20;8.05;;;16.80;99.90;;;;;;5054045;28;20049;-74
2023/10/11 03:42:14;;;;;;;20.90;8.00;;;16.70;99.90;;;;;;4993068;28;20056;-74
2023/10/11 03:44:47;;;;;;;30.13;8.35;;;16.80;99.90;;;;;;5017137;28;20045;-76
2023/10/11 03:47:14;;;;;;;23.23;7.85;;;16.80;99.90;;;;;;5016995;28;20128;-73
2023/10/11 03:52:31;;;;;;;16.63;8.10;;;16.80;99.90;;;;;;5031316;28;20045;-73
2023/10/11 03:57:51;;;;;;;22.90;7.70;;;16.80;99.90;;;;;;5020258;28;20088;-71
2023/10/11 04:02:56;;;;;;;21.10;8.20;;;16.70;99.90;;;;;;5053400;28;20053;-72
2023/10/11 04:05:22;;;;;;;24.20;8.32;;;16.70;99.90;;;;;;5036097;28;20051;-72
2023/10/11 04:07:48;;;;;;;25.20;8.70;;;16.80;99.90;;;;;;5036317;28;20132;-75
2023/10/11 04:10:20;;;;;;;24.27;8.05;;;16.80;99.90;;;;;;5035159;28;20128;-71
2023/10/11 04:12:47;;;;;;;22.23;8.63;;;16.70;99.90;;;;;;5053378;28;20057;-71
2023/10/11 04:15:24;;;;;;;20.38;7.97;;;16.80;99.90;;;;;;5054458;28;20064;-73
2023/10/11 04:17:55;;;;;;;24.77;8.82;;;16.70;99.90;;;;;;5052608;28;20396;-71
2023/10/11 04:20:32;;;;;;;22.83;8.98;;;16.60;99.90;;;;;;5053830;28;20098;-71
2023/10/11 04:23:01;;;;;;;18.45;8.07;;;16.60;99.90;;;;;;5035441;28;20080;-71
2023/10/11 04:25:28;;;;;;;26.38;9.20;;;16.60;99.90;;;;;;5053067;28;20447;-71
2023/10/11 04:27:57;;;;;;;21.30;9.93;;;16.70;99.90;;;;;;5035831;28;20060;-71
2023/10/11 04:30:26;;;;;;;26.73;9.68;;;16.70;99.90;;;;;;5053667;28;20138;-71
2023/10/11 04:32:56;;;;;;;26.55;9.45;;;16.60;99.90;;;;;;5034818;28;20087;-71
2023/10/11 04:35:25;;;;;;;21.88;9.75;;;16.70;99.90;;;;;;5035361;28;20179;-71
2023/10/11 04:38:03;;;;;;;21.42;8.77;;;16.60;99.90;;;;;;5035469;28;20044;-71
2023/10/11 04:43:11;;;;;;;23.77;9.05;;;16.50;99.90;;;;;;5035275;28;20531;-71
2023/10/11 04:45:44;;;;;;;31.42;9.48;;;16.50;99.90;;;;;;5035032;28;20071;-71
2023/10/11 04:48:29;;;;;;;22.52;8.80;;;16.50;99.90;;;;;;5053164;28;20064;-69
2023/10/11 04:51:04;;;;;;;29.85;9.25;;;16.50;99.90;;;;;;5035261;28;20053;-71
2023/10/11 04:53:34;;;;;;;29.10;10.18;;;16.50;99.90;;;;;;5052422;28;20087;-71
2023/10/11 04:56:51;;;;;;;23.77;9.48;;;16.80;99.90;;;;;;5034794;28;20508;-74
2023/10/11 04:58:59;;;;;;;25.33;9.70;;;16.50;99.90;;;;;;5034481;28;20057;-72
2023/10/11 05:01:39;;;;;;;28.33;10.43;;;16.40;99.90;;;;;;5034184;28;20044;-72
2023/10/11 05:04:09;;;;;;;27.70;10.25;;;16.40;99.90;;;;;;5034810;28;20052;-74
2023/10/11 05:06:40;;;;;;;19.95;8.23;;;16.40;99.90;;;;;;5034339;28;20040;-74
2023/10/11 05:09:15;;;;;;;31.85;10.00;;;16.40;99.90;;;;;;5034137;28;20361;-71
2023/10/11 05:11:44;;;;;;;20.60;9.55;;;16.40;99.90;;;;;;5035330;28;20516;-72
2023/10/11 05:14:26;;;;;;;26.52;9.93;;;16.40;99.90;;;;;;5052046;28;20082;-73
2023/10/11 05:16:58;;;;;;;29.77;9.43;;;16.50;99.90;;;;;;5035614;28;20052;-74
2023/10/11 05:19:34;;;;;;;21.83;9.57;;;16.50;99.90;;;;;;5035954;28;20048;-71
2023/10/11 05:22:03;;;;;;;23.70;9.45;;;16.60;99.90;;;;;;5034315;28;20504;-72
2023/10/11 05:25:12;;;;;;;27.10;9.52;;;16.60;99.90;;;;;;5034028;28;20550;-72
2023/10/11 05:51:39;;;;;;;27.83;10.25;;;17.20;99.90;;;;;;5052131;28;20054;-73
2023/10/11 05:54:09;;;;;;;26.85;9.63;;;17.10;99.90;;;;;;5034124;28;20528;-71
2023/10/11 05:56:38;;;;;;;26.92;9.25;;;17.10;99.90;;;;;;5034041;28;20040;-72
2023/10/11 05:59:09;;;;;;;24.17;9.65;;;17.20;99.90;;;;;;5034218;28;20041;-71
2023/10/11 06:01:34;;;;;;;19.88;8.73;;;17.20;99.90;;;;;;5034828;28;20123;-72
2023/10/11 06:04:03;;;;;;;24.65;10.10;;;17.10;99.90;;;;;;5051486;28;20115;-72
2023/10/11 06:06:42;;;;;;;22.17;9.07;;;17.10;99.90;;;;;;5034510;28;20049;-72
2023/10/11 06:09:16;;;;;;;26.98;9.77;;;17.10;99.90;;;;;;5034169;28;20056;-72
2023/10/11 06:11:49;;;;;;;26.55;11.00;;;17.10;99.90;;;;;;5034098;28;20491;-72
2023/10/11 06:14:17;;;;;;;23.55;9.77;;;17.10;99.90;;;;;;5034540;28;20052;-71
2023/10/11 06:16:49;;;;;;;20.80;10.00;;;17.10;99.90;;;;;;5033737;28;20115;-71
2023/10/11 06:19:16;;;;;;;28.30;9.98;;;17.10;99.90;;;;;;5052316;28;20476;-71
2023/10/11 06:21:56;;;;;;;19.63;9.32;;;17.10;99.90;;;;;;5034268;28;20386;-72
2023/10/11 06:24:33;;;;;;;21.30;10.27;;;17.10;99.90;;;;;;5050986;28;20033;-72
2023/10/11 06:28:09;;;;;;;22.85;10.30;;;17.10;99.90;;;;;;5033393;28;20071;-75
2023/10/11 06:29:57;;;;;;;24.10;9.02;;;17.20;99.90;;;;;;5033283;28;20531;-74
2023/10/11 06:32:24;;;;;;;23.25;9.40;;;17.20;99.90;;;;;;5051175;28;20075;-74
2023/10/11 06:34:50;;;;;;;21.65;9.23;;;17.30;99.90;;;;;;5033900;28;20053;-73
2023/10/11 06:37:24;;;;;;;19.63;9.20;;;17.20;99.90;;;;;;5036122;28;20056;-73
2023/10/11 06:42:23;;;;;;;18.35;8.98;;;17.20;99.90;;;;;;5055405;28;20061;-73
2023/10/11 06:44:59;;;;;;;20.00;10.45;;;17.30;99.90;;;;;;5036528;28;20048;-73
2023/10/11 06:47:35;;;;;;;19.98;10.13;;;17.20;99.90;;;;;;5037977;28;20061;-73
2023/10/11 06:50:12;;;;;;;20.90;9.52;;;17.30;99.90;;;;;;5037443;28;20114;-73
2023/10/11 06:52:45;;;;;;;20.10;9.52;;;17.20;99.90;;;;;;5036987;28;20041;-73
2023/10/11 06:57:41;;;;;;;18.73;9.93;;;17.30;99.90;;;;;;5055569;28;20415;-73
2023/10/11 07:00:14;;;;;;;21.92;9.68;;;17.30;99.90;;;;;;5054540;28;20040;-72
2023/10/11 07:02:47;;;;;;;26.55;9.88;;;17.40;99.90;;;;;;5037919;28;20492;-72
2023/10/11 07:05:20;;;;;;;16.98;9.20;;;17.30;99.90;;;;;;5037711;28;20498;-72
2023/10/11 07:07:49;;;;;;;18.52;8.68;;;17.30;99.90;;;;;;5054922;28;20041;-73
2023/10/11 07:10:29;;;;;;;20.83;9.57;;;17.40;99.90;;;;;;5037276;28;20084;-73
2023/10/11 07:13:05;;;;;;;17.02;8.55;;;17.50;99.90;;;;;;5036535;28;20053;-73
2023/10/11 07:15:47;;;;;;;16.70;7.93;;;17.50;99.90;;;;;;5055251;28;20040;-73
2023/10/11 07:18:24;;;;;;;18.92;7.75;;;17.50;99.90;;;;;;5054739;28;20049;-73
2023/10/11 07:21:09;;;;;;;15.30;7.43;;;17.50;99.90;;;;;;5036241;28;20129;-73
2023/10/11 07:23:46;;;;;;;18.48;7.70;;;17.50;99.90;;;;;;5037669;28;20048;-73
2023/10/11 07:26:48;;;;;;;14.75;7.45;;;17.60;99.90;;;;;;5054820;28;20044;-73
2023/10/11 07:29:12;;;;;;;14.82;7.88;;;17.70;99.90;;;;;;5053667;28;20053;-73
2023/10/11 07:31:48;;;;;;;17.92;7.93;;;17.70;99.90;;;;;;5054988;28;20045;-73
2023/10/11 07:34:18;;;;;;;19.15;8.00;;;17.80;99.90;;;;;;5035906;28;20087;-72
2023/10/11 07:36:45;;;;;;;17.95;7.28;;;17.90;99.90;;;;;;5054581;28;20065;-73
2023/10/11 07:41:52;;;;;;;18.13;6.93;;;18.00;99.90;;;;;;5053715;28;20090;-73
2023/10/11 07:44:18;;;;;;;11.45;6.35;;;18.10;99.90;;;;;;5036782;28;20049;-73
2023/10/11 07:46:54;;;;;;;14.18;6.43;;;18.30;99.90;;;;;;5054711;28;20049;-73
2023/10/11 07:49:23;;;;;;;;;;;18.30;99.90;;;;;;5031876;28;20045;-73
2023/10/11 07:51:52;;;;;;;16.65;8.63;;;18.10;99.90;;;;;;5033427;28;20331;-73
2023/10/11 07:54:22;;;;;;;20.20;9.05;;;18.10;99.90;;;;;;5034487;28;20048;-73
2023/10/11 07:56:51;;;;;;;16.80;8.57;;;18.00;99.90;;;;;;5032288;28;20045;-73
2023/10/11 07:59:21;;;;;;;16.58;8.55;;;17.90;99.90;;;;;;5034537;28;20045;-73
2023/10/11 08:01:47;;;;;;;15.85;8.30;;;17.90;99.90;;;;;;5032900;28;20053;-73
2023/10/11 08:04:18;;;;;;;18.52;9.20;;;18.00;99.90;;;;;;5032290;28;20060;-73
2023/10/11 08:06:44;;;;;;;20.40;10.70;;;17.90;99.90;;;;;;5033082;28;20120;-73
2023/10/11 08:09:19;;;;;;;14.90;8.65;;;17.90;99.90;;;;;;5033110;28;20041;-73
2023/10/11 08:11:59;;;;;;;20.00;9.10;;;17.90;99.90;;;;;;5033032;28;20045;-73
2023/10/11 08:14:32;;;;;;;16.90;9.40;;;17.90;99.90;;;;;;5032631;28;20068;-73
2023/10/11 08:16:59;;;;;;;18.42;8.18;;;17.90;99.90;;;;;;5032008;28;20049;-73
2023/10/11 08:19:25;;;;;;;13.60;8.02;;;17.90;99.90;;;;;;5034197;28;20041;-73
2023/10/11 08:21:57;;;;;;;15.70;8.30;;;17.80;99.90;;;;;;5032417;28;20058;-73
2023/10/11 08:24:27;;;;;;;19.85;8.38;;;17.90;99.90;;;;;;5018319;28;20523;-73
2023/10/11 08:26:57;;;;;;;15.68;8.65;;;18.00;99.90;;;;;;5033687;28;20053;-72
2023/10/11 08:29:30;;;;;;;17.70;7.90;;;18.00;99.90;;;;;;5033827;28;20052;-73
2023/10/11 08:31:57;;;;;;;16.27;7.40;;;18.00;99.90;;;;;;5031926;28;20092;-73
2023/10/11 08:34:29;;;;;;;13.65;7.63;;;18.10;99.90;;;;;;5032596;28;20077;-73
2023/10/11 08:36:56;;;;;;;11.80;6.63;;;18.10;99.90;;;;;;5033345;28;20055;-72
2023/10/11 08:42:16;;;;;;;11.07;5.95;;;18.30;99.90;;;;;;5033532;28;20140;-73
2023/10/11 08:44:45;;;;;;;11.95;6.20;;;18.30;99.90;;;;;;5031906;28;20049;-73
2023/10/11 08:47:19;;;;;;;12.15;6.55;;;18.30;99.90;;;;;;5033574;28;20049;-73
2023/10/11 08:49:48;;;;;;;12.68;6.13;;;18.20;99.90;;;;;;5032068;28;20061;-72
2023/10/11 08:52:30;;;;;;;12.98;6.28;;;18.20;99.90;;;;;;5030847;28;20046;-73
2023/10/11 08:54:58;;;;;;;14.10;6.35;;;18.20;99.90;;;;;;5032268;28;20095;-73
2023/10/11 08:57:25;;;;;;;13.63;6.22;;;18.10;99.90;;;;;;5031877;28;20045;-72
2023/10/11 08:59:58;;;;;;;13.52;6.40;;;18.10;99.90;;;;;;5031851;28;20049;-73
2023/10/11 09:02:27;;;;;;;14.93;7.25;;;18.20;99.90;;;;;;5032144;28;20084;-73
2023/10/11 09:05:00;;;;;;;15.50;6.43;;;18.10;99.90;;;;;;5032952;28;20373;-73
2023/10/11 09:07:44;;;;;;;14.32;7.35;;;18.10;99.90;;;;;;5031302;28;20042;-72
2023/10/11 09:10:32;;;;;;;12.45;6.90;;;18.00;99.90;;;;;;5031616;28;20103;-72
2023/10/11 09:12:59;;;;;;;16.58;7.07;;;18.10;99.90;;;;;;5030673;28;20382;-73
2023/10/11 09:15:55;;;;;;;17.20;7.53;;;18.10;99.90;;;;;;5033223;28;20088;-72
2023/10/11 09:18:24;;;;;;;13.80;6.38;;;18.20;99.90;;;;;;5015160;28;20098;-73
2023/10/11 09:21:10;;;;;;;11.38;5.72;;;18.30;99.90;;;;;;5030379;28;20463;-73
2023/10/11 09:23:46;;;;;;;14.50;6.50;;;18.30;99.90;;;;;;5032901;28;20393;-72
2023/10/11 09:26:20;;;;;;;13.80;6.10;;;18.20;99.90;;;;;;5031788;28;20045;-73
2023/10/11 09:28:56;;;;;;;11.48;4.97;;;18.20;99.90;;;;;;5028942;28;20128;-73
2023/10/11 09:31:23;;;;;;;10.02;5.15;;;18.20;99.90;;;;;;5032321;28;20095;-73
2023/10/11 09:33:59;;;;;;;15.25;5.63;;;18.30;99.90;;;;;;5031746;28;20052;-73
2023/10/11 09:36:26;;;;;;;9.05;4.75;;;18.20;99.90;;;;;;5031601;28;20050;-72
2023/10/11 09:38:55;;;;;;;12.55;5.63;;;18.20;99.90;;;;;;5032545;28;20044;-72
2023/10/11 09:41:38;;;;;;;12.50;6.03;;;18.10;99.90;;;;;;5031946;28;20045;-72
2023/10/11 09:44:05;;;;;;;13.90;5.25;;;18.00;99.90;;;;;;5011767;28;20046;-72
2023/10/11 09:46:33;;;;;;;12.60;5.80;;;17.90;99.90;;;;;;5011655;28;20046;-72
2023/10/11 09:49:02;;;;;;;11.10;5.78;;;17.90;99.90;;;;;;5010321;28;20136;-72
2023/10/11 09:51:28;;;;;;;11.68;4.90;;;17.80;99.90;;;;;;5013004;28;20122;-72
2023/10/11 09:54:01;;;;;;;14.00;5.90;;;17.90;99.90;;;;;;5012684;28;20054;-72
2023/10/11 09:56:39;;;;;;;12.07;5.63;;;17.80;99.90;;;;;;5011301;28;20049;-72
2023/10/11 09:59:35;;;;;;;13.75;5.60;;;18.00;99.90;;;;;;5032117;28;20037;-73
2023/10/11 10:02:09;;;;;;;13.15;5.53;;;18.20;99.90;;;;;;5031619;28;20132;-73
2023/10/11 10:04:49;;;;;;;14.05;4.97;;;18.60;99.90;;;;;;5032125;28;20049;-73
2023/10/11 10:07:32;;;;;;;12.73;5.22;;;19.10;99.90;;;;;;5011708;28;20057;-73
2023/10/11 10:10:02;;;;;;;11.95;5.20;;;19.60;99.90;;;;;;5011516;28;20082;-73
2023/10/11 10:12:32;;;;;;;13.02;4.88;;;20.50;99.90;;;;;;5014644;28;20393;-73
2023/10/11 10:15:20;;;;;;;12.02;5.68;;;21.00;99.90;;;;;;5031818;28;20083;-73
2023/10/11 10:18:00;;;;;;;11.35;5.10;;;21.10;99.90;;;;;;5035705;28;20504;-73
2023/10/11 10:20:41;;;;;;;10.13;4.70;;;21.00;99.90;;;;;;5035327;28;20487;-73
2023/10/11 10:23:16;;;;;;;14.75;5.05;;;20.60;99.90;;;;;;5033787;28;20084;-72
2023/10/11 10:25:46;;;;;;;8.40;4.13;;;20.40;99.90;;;;;;5035164;28;20061;-73
2023/10/11 10:28:31;;;;;;;9.25;4.45;;;20.30;99.90;;;;;;5034692;28;20056;-73
2023/10/11 10:31:16;;;;;;;13.25;4.93;;;20.00;99.90;;;;;;5035118;28;20128;-72
2023/10/11 10:33:43;;;;;;;8.32;4.13;;;19.80;99.90;;;;;;5034664;28;20049;-73
2023/10/11 10:36:21;;;;;;;10.75;4.47;;;19.80;99.90;;;;;;5034668;28;20389;-73
2023/10/11 10:41:39;;;;;;;8.07;3.50;;;19.40;99.90;;;;;;5035433;28;20424;-73
2023/10/11 10:44:12;;;;;;;8.75;3.83;;;19.40;99.90;;;;;;5033516;28;20056;-73
2023/10/11 10:46:49;;;;;;;6.68;3.40;;;19.30;99.90;;;;;;5034632;28;20041;-73
2023/10/11 10:49:19;;;;;;;9.30;3.72;;;19.30;99.90;;;;;;5033969;28;20501;-73
2023/10/11 10:51:47;;;;;;;11.55;3.90;;;19.30;99.90;;;;;;5033911;28;20052;-73
2023/10/11 10:54:14;;;;;;;9.10;4.00;;;19.30;99.90;;;;;;5034606;28;20392;-72
2023/10/11 10:56:47;;;;;;;11.60;4.15;;;19.60;99.90;;;;;;5034868;28;20096;-72
2023/10/11 10:59:14;;;;;;;10.95;4.22;;;19.80;99.90;;;;;;5034127;28;20175;-73
2023/10/11 11:01:44;;;;;;;11.40;4.25;;;19.50;99.90;;;;;;5034351;28;20054;-73
2023/10/11 11:04:11;;;;;;;12.40;4.28;;;19.30;99.90;;;;;;5035203;28;20056;-73
2023/10/11 11:06:38;;;;;;;13.25;4.60;;;19.30;99.90;;;;;;5013579;28;20121;-73
2023/10/11 11:09:13;;;;;;;14.75;4.38;;;19.10;99.90;;;;;;5021410;28;20049;-73
2023/10/11 11:11:40;;;;;;;11.73;4.93;;;19.20;99.90;;;;;;5035576;28;20073;-73
2023/10/11 11:14:09;;;;;;;11.35;4.10;;;19.20;99.90;;;;;;5034315;28;20053;-73
2023/10/11 11:16:39;;;;;;;12.95;4.57;;;19.50;99.90;;;;;;5034310;28;20091;-73
2023/10/11 11:19:19;;;;;;;11.90;4.68;;;19.60;99.90;;;;;;5033612;28;20501;-73
2023/10/11 11:21:46;;;;;;;11.23;4.47;;;19.70;99.90;;;;;;5035178;28;20124;-73
2023/10/11 11:24:20;;;;;;;13.15;4.60;;;19.80;99.90;;;;;;5033640;28;20507;-73
2023/10/11 11:26:46;;;;;;;12.57;4.82;;;19.80;99.90;;;;;;5032840;28;20389;-73
2023/10/11 11:29:31;;;;;;;13.55;4.88;;;19.70;99.90;;;;;;5034739;28;20038;-73
2023/10/11 11:32:14;;;;;;;12.57;4.75;;;19.60;99.90;;;;;;5034820;28;20104;-73
2023/10/11 11:35:04;;;;;;;13.02;4.65;;;19.70;99.90;;;;;;5032940;28;20548;-73
2023/10/11 11:37:38;;;;;;;13.10;4.50;;;19.60;99.90;;;;;;5020914;28;20489;-73
2023/10/11 11:40:23;;;;;;;11.30;4.88;;;19.70;99.90;;;;;;5033578;28;20076;-72
2023/10/11 11:42:49;;;;;;;13.63;4.82;;;19.60;99.90;;;;;;5034475;28;20124;-73
2023/10/11 11:45:16;;;;;;;13.48;4.75;;;19.40;99.90;;;;;;5033852;28;20121;-73
2023/10/11 11:47:57;;;;;;;12.45;5.22;;;19.40;99.90;;;;;;5035430;28;20061;-73
2023/10/11 11:50:33;;;;;;;15.43;4.90;;;19.40;99.90;;;;;;5036223;28;20049;-73
2023/10/11 11:53:00;;;;;;;18.70;5.88;;;19.60;99.90;;;;;;5016808;28;20120;-73
2023/10/11 11:55:26;;;;;;;13.02;4.75;;;19.70;99.90;;;;;;5015998;28;20079;-73
2023/10/11 11:57:54;;;;;;;14.73;4.63;;;19.70;99.90;;;;;;5016293;28;20450;-73
2023/10/11 12:00:38;;;;;;;16.38;5.35;;;19.70;99.90;;;;;;5017802;28;20048;-73
2023/10/11 12:03:05;;;;;;;14.98;4.60;;;19.50;99.90;;;;;;5015654;28;20124;-73
2023/10/11 12:05:40;;;;;;;14.88;5.10;;;19.50;99.90;;;;;;5035635;28;20033;-73
2023/10/11 12:08:20;;;;;;;11.68;4.63;;;19.40;99.90;;;;;;5053619;28;20053;-73
2023/10/11 12:10:47;;;;;;;11.85;4.75;;;19.40;99.90;;;;;;5036264;28;20522;-73
2023/10/11 12:13:22;;;;;;;13.90;5.18;;;19.30;99.90;;;;;;5036214;28;20160;-73
2023/10/11 12:15:50;;;;;;;13.68;4.90;;;19.20;99.90;;;;;;5052490;28;20094;-73
2023/10/11 12:18:16;;;;;;;11.32;4.97;;;19.20;99.90;;;;;;5054198;28;20052;-73
2023/10/11 12:20:46;;;;;;;11.80;4.78;;;19.30;99.90;;;;;;5036274;28;20089;-73
2023/10/11 12:23:12;;;;;;;12.85;5.20;;;19.30;99.90;;;;;;5035414;28;20166;-73
2023/10/11 12:25:38;;;;;;;16.63;4.70;;;19.20;99.90;;;;;;5053759;28;20119;-73
2023/10/11 12:28:05;;;;;;;15.23;5.05;;;19.10;99.90;;;;;;5035754;28;20124;-73
2023/10/11 12:30:35;;;;;;;11.07;4.85;;;19.30;99.90;;;;;;5035013;28;20045;-73
2023/10/11 12:33:06;;;;;;;13.52;4.97;;;19.30;99.90;;;;;;5035873;28;20433;-73
2023/10/11 12:35:36;;;;;;;14.13;4.78;;;19.30;99.90;;;;;;5034727;28;20049;-73
2023/10/11 12:38:02;;;;;;;9.57;5.25;;;20.00;99.90;;;;;;5052670;28;20045;-73
2023/10/11 12:40:28;;;;;;;13.75;5.00;;;19.10;99.90;;;;;;5035641;28;20045;-73
2023/10/11 12:42:57;;;;;;;12.30;4.60;;;19.00;99.90;;;;;;5035187;28;20055;-73
2023/10/11 12:45:23;;;;;;;12.95;4.63;;;19.10;99.90;;;;;;5035104;28;20049;-73
2023/10/11 12:47:49;;;;;;;13.32;4.78;;;19.00;99.90;;;;;;5052548;28;20051;-73
2023/10/11 12:50:17;;;;;;;12.98;4.97;;;19.10;99.90;;;;;;5035627;28;20106;-73
2023/10/11 12:52:45;;;;;;;15.20;5.22;;;19.10;99.90;;;;;;5034749;28;20132;-73
2023/10/11 12:55:12;;;;;;;15.27;5.35;;;19.10;99.90;;;;;;5035195;28;20045;-73
2023/10/11 12:57:39;;;;;;;16.65;5.88;;;19.30;99.90;;;;;;5034658;28;20045;-73
2023/10/11 13:00:29;;;;;;;15.18;5.50;;;19.40;99.90;;;;;;5034616;28;20040;-73
2023/10/11 13:05:39;;;;;;;13.93;4.45;;;19.20;99.90;;;;;;5052269;28;20041;-73
2023/10/11 13:08:05;;;;;;;12.32;4.35;;;19.20;99.90;;;;;;5034960;28;20496;-73
2023/10/11 13:10:33;;;;;;;12.40;4.80;;;19.00;99.90;;;;;;5052428;28;20080;-73
2023/10/11 13:12:59;;;;;;;12.80;4.60;;;18.90;99.90;;;;;;5034014;28;20400;-73
2023/10/11 13:15:27;;;;;;;17.25;4.68;;;18.90;99.90;;;;;;5053090;28;20041;-73
2023/10/11 13:17:53;;;;;;;13.02;4.85;;;18.80;99.90;;;;;;5034369;28;20526;-73
2023/10/11 13:20:18;;;;;;;15.95;4.47;;;18.80;99.90;;;;;;5052145;28;20072;-73
2023/10/11 13:22:45;;;;;;;18.38;5.18;;;18.80;99.90;;;;;;5035207;28;20037;-73
2023/10/11 13:25:22;;;;;;;16.58;5.05;;;18.80;99.90;;;;;;5034846;28;20087;-73
2023/10/11 13:27:48;;;;;;;13.30;4.50;;;18.80;99.90;;;;;;5033459;28;20102;-73
2023/10/11 13:30:14;;;;;;;11.30;4.60;;;18.80;99.90;;;;;;5034770;28;20044;-73
2023/10/11 13:32:40;;;;;;;13.05;4.88;;;18.80;99.90;;;;;;5034207;28;20072;-74
2023/10/11 13:35:12;;;;;;;16.52;5.45;;;18.90;99.90;;;;;;5033531;28;20584;-76
2023/10/11 13:37:37;;;;;;;16.58;5.65;;;19.00;99.90;;;;;;5034866;28;20052;-73
2023/10/11 13:40:05;;;;;;;20.33;5.13;;;19.10;99.90;;;;;;5051715;28;20045;-74
2023/10/11 13:42:37;;;;;;;16.90;4.95;;;19.10;99.90;;;;;;5034506;28;20040;-72
2023/10/11 13:45:09;;;;;;;12.55;4.97;;;19.20;99.90;;;;;;5033793;28;20400;-73
2023/10/11 13:47:36;;;;;;;12.75;4.32;;;19.10;99.90;;;;;;5033460;28;20028;-73
2023/10/11 13:50:08;;;;;;;17.73;4.75;;;19.20;99.90;;;;;;5034373;28;20056;-73
2023/10/11 13:52:37;;;;;;;17.40;5.10;;;19.30;99.90;;;;;;5034803;28;20040;-74
2023/10/11 13:55:11;;;;;;;17.25;4.57;;;19.30;99.90;;;;;;5033813;28;20420;-73
2023/10/11 13:57:37;;;;;;;17.65;5.00;;;19.40;99.90;;;;;;5052544;28;20538;-72